sensor_id;sensor_type;location;lat;lon;timestamp;P1;durP1;ratioP1;P2;durP2;ratioP2
842;SDS011;407;48.884;9.126;2022-09-14T00:02:08;9.40;;;3.60;;
842;SDS011;407;48.884;9.126;2022-09-14T00:04:34;9.20;;;2.85;;
842;SDS011;407;48.884;9.126;2022-09-14T00:07:00;8.32;;;2.85;;
842;SDS011;407;48.884;9.126;2022-09-14T00:09:26;6.80;;;2.97;;
842;SDS011;407;48.884;9.126;2022-09-14T00:11:52;6.88;;;3.20;;
842;SDS011;407;48.884;9.126;2022-09-14T00:14:18;7.30;;;2.80;;
842;SDS011;407;48.884;9.126;2022-09-14T00:16:44;7.78;;;2.97;;
842;SDS011;407;48.884;9.126;2022-09-14T00:19:20;6.77;;;3.00;;
842;SDS011;407;48.884;9.126;2022-09-14T00:21:51;7.00;;;3.10;;
842;SDS011;407;48.884;9.126;2022-09-14T00:24:18;8.13;;;3.30;;
842;SDS011;407;48.884;9.126;2022-09-14T00:26:44;7.15;;;3.10;;
842;SDS011;407;48.884;9.126;2022-09-14T00:29:09;6.77;;;2.73;;
842;SDS011;407;48.884;9.126;2022-09-14T00:31:36;6.82;;;2.80;;
842;SDS011;407;48.884;9.126;2022-09-14T00:34:04;6.60;;;2.83;;
842;SDS011;407;48.884;9.126;2022-09-14T00:36:32;10.38;;;3.50;;
842;SDS011;407;48.884;9.126;2022-09-14T00:39:02;6.60;;;2.85;;
842;SDS011;407;48.884;9.126;2022-09-14T00:41:29;8.93;;;3.20;;
842;SDS011;407;48.884;9.126;2022-09-14T00:44:01;8.27;;;2.80;;
842;SDS011;407;48.884;9.126;2022-09-14T00:46:51;6.63;;;3.00;;
842;SDS011;407;48.884;9.126;2022-09-14T00:49:24;7.50;;;2.83;;
842;SDS011;407;48.884;9.126;2022-09-14T00:52:03;6.95;;;2.78;;
842;SDS011;407;48.884;9.126;2022-09-14T00:54:35;7.00;;;2.90;;
842;SDS011;407;48.884;9.126;2022-09-14T00:57:04;7.30;;;3.00;;
842;SDS011;407;48.884;9.126;2022-09-14T00:59:30;6.63;;;3.00;;
842;SDS011;407;48.884;9.126;2022-09-14T01:01:59;8.05;;;2.85;;
842;SDS011;407;48.884;9.126;2022-09-14T01:04:25;7.50;;;3.20;;
842;SDS011;407;48.884;9.126;2022-09-14T01:12:46;7.22;;;2.80;;
842;SDS011;407;48.884;9.126;2022-09-14T01:17:57;7.03;;;2.80;;
842;SDS011;407;48.884;9.126;2022-09-14T01:31:15;6.90;;;3.20;;
842;SDS011;407;48.884;9.126;2022-09-14T01:33:52;10.18;;;3.78;;
842;SDS011;407;48.884;9.126;2022-09-14T01:36:23;8.40;;;3.38;;
842;SDS011;407;48.884;9.126;2022-09-14T01:38:52;8.60;;;3.70;;
842;SDS011;407;48.884;9.126;2022-09-14T01:41:21;9.02;;;3.90;;
842;SDS011;407;48.884;9.126;2022-09-14T01:44:12;8.75;;;3.90;;
842;SDS011;407;48.884;9.126;2022-09-14T01:46:41;10.60;;;4.63;;
842;SDS011;407;48.884;9.126;2022-09-14T01:52:13;12.52;;;5.07;;
842;SDS011;407;48.884;9.126;2022-09-14T01:54:53;9.23;;;5.07;;
842;SDS011;407;48.884;9.126;2022-09-14T01:57:35;10.57;;;4.57;;
842;SDS011;407;48.884;9.126;2022-09-14T02:00:07;11.70;;;5.40;;
842;SDS011;407;48.884;9.126;2022-09-14T02:02:39;12.45;;;5.80;;
842;SDS011;407;48.884;9.126;2022-09-14T02:07:55;11.95;;;5.60;;
842;SDS011;407;48.884;9.126;2022-09-14T02:10:21;12.52;;;5.63;;
842;SDS011;407;48.884;9.126;2022-09-14T02:12:48;9.85;;;5.32;;
842;SDS011;407;48.884;9.126;2022-09-14T02:15:14;10.45;;;5.15;;
842;SDS011;407;48.884;9.126;2022-09-14T02:17:40;10.45;;;5.32;;
842;SDS011;407;48.884;9.126;2022-09-14T02:20:08;12.38;;;5.63;;
842;SDS011;407;48.884;9.126;2022-09-14T02:22:40;15.52;;;5.97;;
842;SDS011;407;48.884;9.126;2022-09-14T02:25:06;13.20;;;5.80;;
842;SDS011;407;48.884;9.126;2022-09-14T02:27:32;9.60;;;4.60;;
842;SDS011;407;48.884;9.126;2022-09-14T02:29:57;10.60;;;5.18;;
842;SDS011;407;48.884;9.126;2022-09-14T02:32:27;9.17;;;5.00;;
842;SDS011;407;48.884;9.126;2022-09-14T02:40:31;10.27;;;4.78;;
842;SDS011;407;48.884;9.126;2022-09-14T02:46:00;10.90;;;5.05;;
842;SDS011;407;48.884;9.126;2022-09-14T02:48:42;9.10;;;5.18;;
842;SDS011;407;48.884;9.126;2022-09-14T02:51:39;9.30;;;4.80;;
842;SDS011;407;48.884;9.126;2022-09-14T02:54:32;8.18;;;4.60;;
842;SDS011;407;48.884;9.126;2022-09-14T02:57:03;12.65;;;4.90;;
842;SDS011;407;48.884;9.126;2022-09-14T02:59:28;9.38;;;5.30;;
842;SDS011;407;48.884;9.126;2022-09-14T03:01:54;9.60;;;4.77;;
842;SDS011;407;48.884;9.126;2022-09-14T03:04:21;8.35;;;4.80;;
842;SDS011;407;48.884;9.126;2022-09-14T03:06:47;9.15;;;4.90;;
842;SDS011;407;48.884;9.126;2022-09-14T03:09:12;10.97;;;4.60;;
842;SDS011;407;48.884;9.126;2022-09-14T03:11:38;9.40;;;4.72;;
842;SDS011;407;48.884;9.126;2022-09-14T03:14:03;8.52;;;4.90;;
842;SDS011;407;48.884;9.126;2022-09-14T03:16:29;10.82;;;5.13;;
842;SDS011;407;48.884;9.126;2022-09-14T03:18:55;9.57;;;5.50;;
842;SDS011;407;48.884;9.126;2022-09-14T03:21:20;8.33;;;5.13;;
842;SDS011;407;48.884;9.126;2022-09-14T03:23:47;10.80;;;5.47;;
842;SDS011;407;48.884;9.126;2022-09-14T03:26:16;11.52;;;5.57;;
842;SDS011;407;48.884;9.126;2022-09-14T03:28:43;10.52;;;5.30;;
842;SDS011;407;48.884;9.126;2022-09-14T03:31:13;10.07;;;5.20;;
842;SDS011;407;48.884;9.126;2022-09-14T03:33:39;12.00;;;5.93;;
842;SDS011;407;48.884;9.126;2022-09-14T03:36:12;11.05;;;5.95;;
842;SDS011;407;48.884;9.126;2022-09-14T03:38:43;9.80;;;5.80;;
842;SDS011;407;48.884;9.126;2022-09-14T03:41:10;9.63;;;5.47;;
842;SDS011;407;48.884;9.126;2022-09-14T03:43:36;11.90;;;5.90;;
842;SDS011;407;48.884;9.126;2022-09-14T03:46:06;12.82;;;5.97;;
842;SDS011;407;48.884;9.126;2022-09-14T03:48:33;14.20;;;5.60;;
842;SDS011;407;48.884;9.126;2022-09-14T03:51:02;12.95;;;6.40;;
842;SDS011;407;48.884;9.126;2022-09-14T03:53:29;12.90;;;6.00;;
842;SDS011;407;48.884;9.126;2022-09-14T03:55:56;10.13;;;6.00;;
842;SDS011;407;48.884;9.126;2022-09-14T03:58:22;10.70;;;6.13;;
842;SDS011;407;48.884;9.126;2022-09-14T04:00:48;10.18;;;6.00;;
842;SDS011;407;48.884;9.126;2022-09-14T04:03:15;13.13;;;6.57;;
842;SDS011;407;48.884;9.126;2022-09-14T04:05:41;11.30;;;5.80;;
842;SDS011;407;48.884;9.126;2022-09-14T04:08:07;11.82;;;5.95;;
842;SDS011;407;48.884;9.126;2022-09-14T04:10:33;16.40;;;6.20;;
842;SDS011;407;48.884;9.126;2022-09-14T04:12:58;13.40;;;6.50;;
842;SDS011;407;48.884;9.126;2022-09-14T04:15:25;10.52;;;6.28;;
842;SDS011;407;48.884;9.126;2022-09-14T04:17:52;12.23;;;6.28;;
842;SDS011;407;48.884;9.126;2022-09-14T04:20:17;9.95;;;6.00;;
842;SDS011;407;48.884;9.126;2022-09-14T04:22:43;12.47;;;6.10;;
842;SDS011;407;48.884;9.126;2022-09-14T04:25:10;10.60;;;5.70;;
842;SDS011;407;48.884;9.126;2022-09-14T04:27:35;9.88;;;5.68;;
842;SDS011;407;48.884;9.126;2022-09-14T04:30:01;9.70;;;5.65;;
842;SDS011;407;48.884;9.126;2022-09-14T04:32:28;12.20;;;5.80;;
842;SDS011;407;48.884;9.126;2022-09-14T04:34:53;10.90;;;5.90;;
842;SDS011;407;48.884;9.126;2022-09-14T04:37:19;10.85;;;5.40;;
842;SDS011;407;48.884;9.126;2022-09-14T04:39:45;12.40;;;6.25;;
842;SDS011;407;48.884;9.126;2022-09-14T04:42:10;11.25;;;6.10;;
842;SDS011;407;48.884;9.126;2022-09-14T04:44:36;11.40;;;5.90;;
842;SDS011;407;48.884;9.126;2022-09-14T04:47:01;11.83;;;6.10;;
842;SDS011;407;48.884;9.126;2022-09-14T04:49:27;12.53;;;7.20;;
842;SDS011;407;48.884;9.126;2022-09-14T04:51:53;11.20;;;6.60;;
842;SDS011;407;48.884;9.126;2022-09-14T04:54:18;12.35;;;6.00;;
842;SDS011;407;48.884;9.126;2022-09-14T04:56:44;12.10;;;6.03;;
842;SDS011;407;48.884;9.126;2022-09-14T04:59:10;12.10;;;6.20;;
842;SDS011;407;48.884;9.126;2022-09-14T05:01:37;11.13;;;6.35;;
842;SDS011;407;48.884;9.126;2022-09-14T05:04:04;16.20;;;7.50;;
842;SDS011;407;48.884;9.126;2022-09-14T05:06:31;18.02;;;10.27;;
842;SDS011;407;48.884;9.126;2022-09-14T05:08:59;15.90;;;11.00;;
842;SDS011;407;48.884;9.126;2022-09-14T05:11:30;20.63;;;11.27;;
842;SDS011;407;48.884;9.126;2022-09-14T05:13:58;16.98;;;10.43;;
842;SDS011;407;48.884;9.126;2022-09-14T05:16:28;16.50;;;10.23;;
842;SDS011;407;48.884;9.126;2022-09-14T05:18:57;15.38;;;9.65;;
842;SDS011;407;48.884;9.126;2022-09-14T05:21:26;16.50;;;11.40;;
842;SDS011;407;48.884;9.126;2022-09-14T05:23:53;15.80;;;9.90;;
842;SDS011;407;48.884;9.126;2022-09-14T05:26:20;17.60;;;9.60;;
842;SDS011;407;48.884;9.126;2022-09-14T05:28:51;16.20;;;10.30;;
842;SDS011;407;48.884;9.126;2022-09-14T05:31:18;16.77;;;10.40;;
842;SDS011;407;48.884;9.126;2022-09-14T05:33:44;16.23;;;10.00;;
842;SDS011;407;48.884;9.126;2022-09-14T05:36:11;15.43;;;10.10;;
842;SDS011;407;48.884;9.126;2022-09-14T05:38:37;16.73;;;10.48;;
842;SDS011;407;48.884;9.126;2022-09-14T05:41:03;16.13;;;10.40;;
842;SDS011;407;48.884;9.126;2022-09-14T05:43:31;14.88;;;10.00;;
842;SDS011;407;48.884;9.126;2022-09-14T05:46:00;14.52;;;9.90;;
842;SDS011;407;48.884;9.126;2022-09-14T05:48:31;15.18;;;10.27;;
842;SDS011;407;48.884;9.126;2022-09-14T05:51:01;14.15;;;10.00;;
842;SDS011;407;48.884;9.126;2022-09-14T05:53:29;16.37;;;10.47;;
842;SDS011;407;48.884;9.126;2022-09-14T05:56:05;17.27;;;10.70;;
842;SDS011;407;48.884;9.126;2022-09-14T05:58:33;16.50;;;10.23;;
842;SDS011;407;48.884;9.126;2022-09-14T06:01:17;16.33;;;9.60;;
842;SDS011;407;48.884;9.126;2022-09-14T06:03:44;15.68;;;10.57;;
842;SDS011;407;48.884;9.126;2022-09-14T06:06:11;15.20;;;10.10;;
842;SDS011;407;48.884;9.126;2022-09-14T06:08:38;16.10;;;9.93;;
842;SDS011;407;48.884;9.126;2022-09-14T06:11:08;17.97;;;10.00;;
842;SDS011;407;48.884;9.126;2022-09-14T06:13:39;15.98;;;10.60;;
842;SDS011;407;48.884;9.126;2022-09-14T06:16:15;15.98;;;10.30;;
842;SDS011;407;48.884;9.126;2022-09-14T06:18:44;16.58;;;9.60;;
842;SDS011;407;48.884;9.126;2022-09-14T06:21:11;13.48;;;9.15;;
842;SDS011;407;48.884;9.126;2022-09-14T06:23:41;14.90;;;9.57;;
842;SDS011;407;48.884;9.126;2022-09-14T06:26:08;15.85;;;8.35;;
842;SDS011;407;48.884;9.126;2022-09-14T06:28:34;13.40;;;7.65;;
842;SDS011;407;48.884;9.126;2022-09-14T06:31:00;12.20;;;7.90;;
842;SDS011;407;48.884;9.126;2022-09-14T06:33:28;14.07;;;7.60;;
842;SDS011;407;48.884;9.126;2022-09-14T06:38:21;13.13;;;7.30;;
842;SDS011;407;48.884;9.126;2022-09-14T06:40:56;10.18;;;6.55;;
842;SDS011;407;48.884;9.126;2022-09-14T06:43:24;10.30;;;5.63;;
842;SDS011;407;48.884;9.126;2022-09-14T06:46:04;10.82;;;5.70;;
842;SDS011;407;48.884;9.126;2022-09-14T06:48:44;10.38;;;5.57;;
842;SDS011;407;48.884;9.126;2022-09-14T06:51:16;9.68;;;5.50;;
842;SDS011;407;48.884;9.126;2022-09-14T06:53:46;10.32;;;5.28;;
842;SDS011;407;48.884;9.126;2022-09-14T06:56:13;10.55;;;5.47;;
842;SDS011;407;48.884;9.126;2022-09-14T06:58:39;9.48;;;5.72;;
842;SDS011;407;48.884;9.126;2022-09-14T07:01:06;12.23;;;5.60;;
842;SDS011;407;48.884;9.126;2022-09-14T07:03:35;10.80;;;5.50;;
842;SDS011;407;48.884;9.126;2022-09-14T07:06:05;11.02;;;5.57;;
842;SDS011;407;48.884;9.126;2022-09-14T07:08:33;10.63;;;5.70;;
842;SDS011;407;48.884;9.126;2022-09-14T07:10:59;10.90;;;5.68;;
842;SDS011;407;48.884;9.126;2022-09-14T07:13:26;7.53;;;4.40;;
842;SDS011;407;48.884;9.126;2022-09-14T07:15:52;10.70;;;5.10;;
842;SDS011;407;48.884;9.126;2022-09-14T07:18:19;9.02;;;4.53;;
842;SDS011;407;48.884;9.126;2022-09-14T07:20:46;8.50;;;4.40;;
842;SDS011;407;48.884;9.126;2022-09-14T07:23:12;10.20;;;4.65;;
842;SDS011;407;48.884;9.126;2022-09-14T07:25:38;8.70;;;4.70;;
842;SDS011;407;48.884;9.126;2022-09-14T07:28:04;8.35;;;4.07;;
842;SDS011;407;48.884;9.126;2022-09-14T07:30:33;8.05;;;4.20;;
842;SDS011;407;48.884;9.126;2022-09-14T07:33:00;8.20;;;4.00;;
842;SDS011;407;48.884;9.126;2022-09-14T07:35:25;8.87;;;3.80;;
842;SDS011;407;48.884;9.126;2022-09-14T07:37:52;7.20;;;3.80;;
842;SDS011;407;48.884;9.126;2022-09-14T07:40:18;9.95;;;4.00;;
842;SDS011;407;48.884;9.126;2022-09-14T07:42:50;7.10;;;3.20;;
842;SDS011;407;48.884;9.126;2022-09-14T07:45:16;9.63;;;3.90;;
842;SDS011;407;48.884;9.126;2022-09-14T07:47:42;9.40;;;3.80;;
842;SDS011;407;48.884;9.126;2022-09-14T07:50:08;7.60;;;3.40;;
842;SDS011;407;48.884;9.126;2022-09-14T07:52:34;7.13;;;3.10;;
842;SDS011;407;48.884;9.126;2022-09-14T07:54:59;8.80;;;3.77;;
842;SDS011;407;48.884;9.126;2022-09-14T07:57:25;9.90;;;3.90;;
842;SDS011;407;48.884;9.126;2022-09-14T07:59:51;8.15;;;3.70;;
842;SDS011;407;48.884;9.126;2022-09-14T08:02:17;7.75;;;3.78;;
842;SDS011;407;48.884;9.126;2022-09-14T08:04:43;7.53;;;3.50;;
842;SDS011;407;48.884;9.126;2022-09-14T08:07:09;8.97;;;3.57;;
842;SDS011;407;48.884;9.126;2022-09-14T08:09:36;10.50;;;3.40;;
842;SDS011;407;48.884;9.126;2022-09-14T08:12:03;8.30;;;3.70;;
842;SDS011;407;48.884;9.126;2022-09-14T08:14:29;7.90;;;2.90;;
842;SDS011;407;48.884;9.126;2022-09-14T08:16:55;7.65;;;3.45;;
842;SDS011;407;48.884;9.126;2022-09-14T08:19:21;8.23;;;3.70;;
842;SDS011;407;48.884;9.126;2022-09-14T08:21:47;7.97;;;3.55;;
842;SDS011;407;48.884;9.126;2022-09-14T08:24:13;7.72;;;3.30;;
842;SDS011;407;48.884;9.126;2022-09-14T08:26:41;9.05;;;3.88;;
842;SDS011;407;48.884;9.126;2022-09-14T08:29:06;8.20;;;3.53;;
842;SDS011;407;48.884;9.126;2022-09-14T08:31:35;10.23;;;3.27;;
842;SDS011;407;48.884;9.126;2022-09-14T08:34:02;7.75;;;3.40;;
842;SDS011;407;48.884;9.126;2022-09-14T08:36:30;7.30;;;3.50;;
842;SDS011;407;48.884;9.126;2022-09-14T08:38:58;7.82;;;3.35;;
842;SDS011;407;48.884;9.126;2022-09-14T08:44:00;8.20;;;3.20;;
842;SDS011;407;48.884;9.126;2022-09-14T08:46:35;7.43;;;3.28;;
842;SDS011;407;48.884;9.126;2022-09-14T08:49:08;8.55;;;3.50;;
842;SDS011;407;48.884;9.126;2022-09-14T08:51:40;8.13;;;3.30;;
842;SDS011;407;48.884;9.126;2022-09-14T08:54:07;7.73;;;3.60;;
842;SDS011;407;48.884;9.126;2022-09-14T08:56:34;9.05;;;3.90;;
842;SDS011;407;48.884;9.126;2022-09-14T08:59:08;8.10;;;4.20;;
842;SDS011;407;48.884;9.126;2022-09-14T09:02:01;8.20;;;3.40;;
842;SDS011;407;48.884;9.126;2022-09-14T09:04:58;9.00;;;4.00;;
842;SDS011;407;48.884;9.126;2022-09-14T09:07:57;8.68;;;3.22;;
842;SDS011;407;48.884;9.126;2022-09-14T09:10:29;8.60;;;3.80;;
842;SDS011;407;48.884;9.126;2022-09-14T09:12:57;8.30;;;3.50;;
842;SDS011;407;48.884;9.126;2022-09-14T09:15:29;7.10;;;3.50;;
842;SDS011;407;48.884;9.126;2022-09-14T09:18:37;7.77;;;3.20;;
842;SDS011;407;48.884;9.126;2022-09-14T09:21:21;8.10;;;3.40;;
842;SDS011;407;48.884;9.126;2022-09-14T09:23:54;8.82;;;3.60;;
842;SDS011;407;48.884;9.126;2022-09-14T09:26:43;9.35;;;3.30;;
842;SDS011;407;48.884;9.126;2022-09-14T09:29:09;7.57;;;4.10;;
842;SDS011;407;48.884;9.126;2022-09-14T09:31:39;6.80;;;3.20;;
842;SDS011;407;48.884;9.126;2022-09-14T09:34:12;6.57;;;3.17;;
842;SDS011;407;48.884;9.126;2022-09-14T09:36:41;6.80;;;2.75;;
842;SDS011;407;48.884;9.126;2022-09-14T09:39:10;7.00;;;2.43;;
842;SDS011;407;48.884;9.126;2022-09-14T09:41:43;8.52;;;2.80;;
842;SDS011;407;48.884;9.126;2022-09-14T09:44:11;7.75;;;2.80;;
842;SDS011;407;48.884;9.126;2022-09-14T09:46:47;7.30;;;3.00;;
842;SDS011;407;48.884;9.126;2022-09-14T09:49:24;7.10;;;2.67;;
842;SDS011;407;48.884;9.126;2022-09-14T09:52:06;8.00;;;3.15;;
842;SDS011;407;48.884;9.126;2022-09-14T09:54:34;7.88;;;3.00;;
842;SDS011;407;48.884;9.126;2022-09-14T09:57:02;7.18;;;3.40;;
842;SDS011;407;48.884;9.126;2022-09-14T10:02:12;8.60;;;3.20;;
842;SDS011;407;48.884;9.126;2022-09-14T10:04:54;7.55;;;3.00;;
842;SDS011;407;48.884;9.126;2022-09-14T10:07:22;7.45;;;3.13;;
842;SDS011;407;48.884;9.126;2022-09-14T10:09:58;7.40;;;3.80;;
842;SDS011;407;48.884;9.126;2022-09-14T10:12:36;7.20;;;3.30;;
842;SDS011;407;48.884;9.126;2022-09-14T10:15:10;8.50;;;2.85;;
842;SDS011;407;48.884;9.126;2022-09-14T10:25:44;8.00;;;2.90;;
842;SDS011;407;48.884;9.126;2022-09-14T10:28:30;8.30;;;3.00;;
842;SDS011;407;48.884;9.126;2022-09-14T10:31:01;6.97;;;2.92;;
842;SDS011;407;48.884;9.126;2022-09-14T10:33:37;6.78;;;3.40;;
842;SDS011;407;48.884;9.126;2022-09-14T10:38:37;6.80;;;2.78;;
842;SDS011;407;48.884;9.126;2022-09-14T10:49:24;7.50;;;3.00;;
842;SDS011;407;48.884;9.126;2022-09-14T10:52:11;7.53;;;2.60;;
842;SDS011;407;48.884;9.126;2022-09-14T10:55:02;7.75;;;2.90;;
842;SDS011;407;48.884;9.126;2022-09-14T11:00:14;7.80;;;2.78;;
842;SDS011;407;48.884;9.126;2022-09-14T11:06:02;6.83;;;2.77;;
842;SDS011;407;48.884;9.126;2022-09-14T11:08:35;6.10;;;2.40;;
842;SDS011;407;48.884;9.126;2022-09-14T11:22:19;9.30;;;2.97;;
842;SDS011;407;48.884;9.126;2022-09-14T11:25:12;6.78;;;2.40;;
842;SDS011;407;48.884;9.126;2022-09-14T11:27:47;9.00;;;2.88;;
842;SDS011;407;48.884;9.126;2022-09-14T11:30:21;7.00;;;2.40;;
842;SDS011;407;48.884;9.126;2022-09-14T11:33:11;7.15;;;2.65;;
842;SDS011;407;48.884;9.126;2022-09-14T11:35:53;7.35;;;2.90;;
842;SDS011;407;48.884;9.126;2022-09-14T11:38:46;6.00;;;2.33;;
842;SDS011;407;48.884;9.126;2022-09-14T11:44:00;7.30;;;2.20;;
842;SDS011;407;48.884;9.126;2022-09-14T11:46:41;9.73;;;2.70;;
842;SDS011;407;48.884;9.126;2022-09-14T11:49:18;6.72;;;2.50;;
842;SDS011;407;48.884;9.126;2022-09-14T11:52:11;8.98;;;2.60;;
842;SDS011;407;48.884;9.126;2022-09-14T11:54:49;6.88;;;2.63;;
842;SDS011;407;48.884;9.126;2022-09-14T11:57:16;7.75;;;2.40;;
842;SDS011;407;48.884;9.126;2022-09-14T12:13:16;7.82;;;2.40;;
842;SDS011;407;48.884;9.126;2022-09-14T12:45:59;8.00;;;2.80;;
842;SDS011;407;48.884;9.126;2022-09-14T12:51:13;7.40;;;2.50;;
842;SDS011;407;48.884;9.126;2022-09-14T13:05:25;8.15;;;3.20;;
842;SDS011;407;48.884;9.126;2022-09-14T13:07:53;7.80;;;2.90;;
842;SDS011;407;48.884;9.126;2022-09-14T13:10:30;8.23;;;3.00;;
842;SDS011;407;48.884;9.126;2022-09-14T13:12:59;8.82;;;3.72;;
842;SDS011;407;48.884;9.126;2022-09-14T13:15:32;7.18;;;3.17;;
842;SDS011;407;48.884;9.126;2022-09-14T13:20:33;7.20;;;2.80;;
842;SDS011;407;48.884;9.126;2022-09-14T13:22:59;6.20;;;2.60;;
842;SDS011;407;48.884;9.126;2022-09-14T13:28:17;9.48;;;3.10;;
842;SDS011;407;48.884;9.126;2022-09-14T13:30:57;7.70;;;2.70;;
842;SDS011;407;48.884;9.126;2022-09-14T13:33:24;9.35;;;2.60;;
842;SDS011;407;48.884;9.126;2022-09-14T13:35:52;7.07;;;2.70;;
842;SDS011;407;48.884;9.126;2022-09-14T13:38:20;5.53;;;2.20;;
842;SDS011;407;48.884;9.126;2022-09-14T13:40:48;6.80;;;2.05;;
842;SDS011;407;48.884;9.126;2022-09-14T13:43:17;12.02;;;2.30;;
842;SDS011;407;48.884;9.126;2022-09-14T13:45:44;6.10;;;1.90;;
842;SDS011;407;48.884;9.126;2022-09-14T13:48:12;7.28;;;2.10;;
842;SDS011;407;48.884;9.126;2022-09-14T13:50:39;5.40;;;1.80;;
842;SDS011;407;48.884;9.126;2022-09-14T13:53:34;8.55;;;2.30;;
842;SDS011;407;48.884;9.126;2022-09-14T13:56:21;5.90;;;1.60;;
842;SDS011;407;48.884;9.126;2022-09-14T13:58:48;6.35;;;1.80;;
842;SDS011;407;48.884;9.126;2022-09-14T14:01:25;5.68;;;1.90;;
842;SDS011;407;48.884;9.126;2022-09-14T14:03:52;5.20;;;1.40;;
842;SDS011;407;48.884;9.126;2022-09-14T14:08:56;5.05;;;1.50;;
842;SDS011;407;48.884;9.126;2022-09-14T14:11:44;6.60;;;2.30;;
842;SDS011;407;48.884;9.126;2022-09-14T14:14:18;5.70;;;1.73;;
842;SDS011;407;48.884;9.126;2022-09-14T14:19:44;5.30;;;1.40;;
842;SDS011;407;48.884;9.126;2022-09-14T14:22:12;6.53;;;2.10;;
842;SDS011;407;48.884;9.126;2022-09-14T14:24:40;5.93;;;1.88;;
842;SDS011;407;48.884;9.126;2022-09-14T14:27:26;5.85;;;1.80;;
842;SDS011;407;48.884;9.126;2022-09-14T14:29:59;5.60;;;2.00;;
842;SDS011;407;48.884;9.126;2022-09-14T14:32:26;6.25;;;1.90;;
842;SDS011;407;48.884;9.126;2022-09-14T14:34:52;6.10;;;1.80;;
842;SDS011;407;48.884;9.126;2022-09-14T14:37:19;7.50;;;2.30;;
842;SDS011;407;48.884;9.126;2022-09-14T14:39:45;5.60;;;1.70;;
842;SDS011;407;48.884;9.126;2022-09-14T14:42:15;6.93;;;1.90;;
842;SDS011;407;48.884;9.126;2022-09-14T14:44:41;7.13;;;1.85;;
842;SDS011;407;48.884;9.126;2022-09-14T14:47:11;5.68;;;1.80;;
842;SDS011;407;48.884;9.126;2022-09-14T14:49:38;6.17;;;2.00;;
842;SDS011;407;48.884;9.126;2022-09-14T14:52:03;5.10;;;1.60;;
842;SDS011;407;48.884;9.126;2022-09-14T14:54:30;7.35;;;1.60;;
842;SDS011;407;48.884;9.126;2022-09-14T14:56:56;5.20;;;1.70;;
842;SDS011;407;48.884;9.126;2022-09-14T14:59:24;4.97;;;1.60;;
842;SDS011;407;48.884;9.126;2022-09-14T15:01:51;5.20;;;1.63;;
842;SDS011;407;48.884;9.126;2022-09-14T15:04:18;5.43;;;1.40;;
842;SDS011;407;48.884;9.126;2022-09-14T15:06:44;5.70;;;1.70;;
842;SDS011;407;48.884;9.126;2022-09-14T15:09:24;5.70;;;1.83;;
842;SDS011;407;48.884;9.126;2022-09-14T15:11:51;4.80;;;1.60;;
842;SDS011;407;48.884;9.126;2022-09-14T15:14:21;7.07;;;1.73;;
842;SDS011;407;48.884;9.126;2022-09-14T15:16:51;6.22;;;1.73;;
842;SDS011;407;48.884;9.126;2022-09-14T15:19:19;5.82;;;1.58;;
842;SDS011;407;48.884;9.126;2022-09-14T15:21:44;6.35;;;1.60;;
842;SDS011;407;48.884;9.126;2022-09-14T15:24:10;5.23;;;1.43;;
842;SDS011;407;48.884;9.126;2022-09-14T15:26:36;6.00;;;1.30;;
842;SDS011;407;48.884;9.126;2022-09-14T15:29:02;5.60;;;1.20;;
842;SDS011;407;48.884;9.126;2022-09-14T15:31:28;5.30;;;1.40;;
842;SDS011;407;48.884;9.126;2022-09-14T15:33:54;5.70;;;1.20;;
842;SDS011;407;48.884;9.126;2022-09-14T15:39:06;4.80;;;1.23;;
842;SDS011;407;48.884;9.126;2022-09-14T15:41:34;5.38;;;1.13;;
842;SDS011;407;48.884;9.126;2022-09-14T15:44:00;7.10;;;1.90;;
842;SDS011;407;48.884;9.126;2022-09-14T15:46:27;5.07;;;1.17;;
842;SDS011;407;48.884;9.126;2022-09-14T15:48:53;5.70;;;1.50;;
842;SDS011;407;48.884;9.126;2022-09-14T15:51:18;6.28;;;1.10;;
842;SDS011;407;48.884;9.126;2022-09-14T15:53:44;5.70;;;1.70;;
842;SDS011;407;48.884;9.126;2022-09-14T15:56:11;5.13;;;1.35;;
842;SDS011;407;48.884;9.126;2022-09-14T15:58:38;4.82;;;1.30;;
842;SDS011;407;48.884;9.126;2022-09-14T16:01:11;6.40;;;1.30;;
842;SDS011;407;48.884;9.126;2022-09-14T16:03:38;5.40;;;1.20;;
842;SDS011;407;48.884;9.126;2022-09-14T16:06:06;4.90;;;1.30;;
842;SDS011;407;48.884;9.126;2022-09-14T16:08:33;4.50;;;1.20;;
842;SDS011;407;48.884;9.126;2022-09-14T16:11:00;5.57;;;1.27;;
842;SDS011;407;48.884;9.126;2022-09-14T16:13:26;4.72;;;1.00;;
842;SDS011;407;48.884;9.126;2022-09-14T16:16:02;4.90;;;1.05;;
842;SDS011;407;48.884;9.126;2022-09-14T16:18:33;5.50;;;1.35;;
842;SDS011;407;48.884;9.126;2022-09-14T16:21:07;5.10;;;1.23;;
842;SDS011;407;48.884;9.126;2022-09-14T16:23:34;5.80;;;1.50;;
842;SDS011;407;48.884;9.126;2022-09-14T16:26:08;5.50;;;1.25;;
842;SDS011;407;48.884;9.126;2022-09-14T16:28:36;7.50;;;1.60;;
842;SDS011;407;48.884;9.126;2022-09-14T16:31:03;4.70;;;1.27;;
842;SDS011;407;48.884;9.126;2022-09-14T16:33:32;4.97;;;1.35;;
842;SDS011;407;48.884;9.126;2022-09-14T16:36:11;6.00;;;1.77;;
842;SDS011;407;48.884;9.126;2022-09-14T16:38:39;5.03;;;1.67;;
842;SDS011;407;48.884;9.126;2022-09-14T16:41:05;5.35;;;1.50;;
842;SDS011;407;48.884;9.126;2022-09-14T16:43:31;6.37;;;1.40;;
842;SDS011;407;48.884;9.126;2022-09-14T16:48:31;4.85;;;1.35;;
842;SDS011;407;48.884;9.126;2022-09-14T16:50:58;5.40;;;1.50;;
842;SDS011;407;48.884;9.126;2022-09-14T16:53:33;5.55;;;1.58;;
842;SDS011;407;48.884;9.126;2022-09-14T16:59:01;6.35;;;1.60;;
842;SDS011;407;48.884;9.126;2022-09-14T17:01:29;5.30;;;1.50;;
842;SDS011;407;48.884;9.126;2022-09-14T17:04:04;5.38;;;1.50;;
842;SDS011;407;48.884;9.126;2022-09-14T17:06:35;6.18;;;1.90;;
842;SDS011;407;48.884;9.126;2022-09-14T17:09:03;6.93;;;1.70;;
842;SDS011;407;48.884;9.126;2022-09-14T17:11:32;6.97;;;1.63;;
842;SDS011;407;48.884;9.126;2022-09-14T17:13:59;6.30;;;1.90;;
842;SDS011;407;48.884;9.126;2022-09-14T17:16:25;5.70;;;1.50;;
842;SDS011;407;48.884;9.126;2022-09-14T17:18:53;5.90;;;1.80;;
842;SDS011;407;48.884;9.126;2022-09-14T17:21:22;6.68;;;1.50;;
842;SDS011;407;48.884;9.126;2022-09-14T17:23:51;5.70;;;1.70;;
842;SDS011;407;48.884;9.126;2022-09-14T17:26:18;6.00;;;1.60;;
842;SDS011;407;48.884;9.126;2022-09-14T17:28:46;7.22;;;1.90;;
842;SDS011;407;48.884;9.126;2022-09-14T17:31:17;8.75;;;2.08;;
842;SDS011;407;48.884;9.126;2022-09-14T17:33:44;5.30;;;1.50;;
842;SDS011;407;48.884;9.126;2022-09-14T17:36:11;6.00;;;1.67;;
842;SDS011;407;48.884;9.126;2022-09-14T17:38:38;5.90;;;2.20;;
842;SDS011;407;48.884;9.126;2022-09-14T17:41:09;5.18;;;1.70;;
842;SDS011;407;48.884;9.126;2022-09-14T17:43:37;7.30;;;2.10;;
842;SDS011;407;48.884;9.126;2022-09-14T17:46:04;6.90;;;1.60;;
842;SDS011;407;48.884;9.126;2022-09-14T17:48:33;7.05;;;2.58;;
842;SDS011;407;48.884;9.126;2022-09-14T17:51:06;6.75;;;2.10;;
842;SDS011;407;48.884;9.126;2022-09-14T17:53:39;6.33;;;2.00;;
842;SDS011;407;48.884;9.126;2022-09-14T17:56:07;5.45;;;1.90;;
842;SDS011;407;48.884;9.126;2022-09-14T17:58:34;5.30;;;2.00;;
842;SDS011;407;48.884;9.126;2022-09-14T18:01:07;5.50;;;2.00;;
842;SDS011;407;48.884;9.126;2022-09-14T18:03:48;6.07;;;2.20;;
842;SDS011;407;48.884;9.126;2022-09-14T18:06:18;6.07;;;2.30;;
842;SDS011;407;48.884;9.126;2022-09-14T18:08:44;7.40;;;2.20;;
842;SDS011;407;48.884;9.126;2022-09-14T18:11:12;6.77;;;1.87;;
842;SDS011;407;48.884;9.126;2022-09-14T18:13:44;5.53;;;1.75;;
842;SDS011;407;48.884;9.126;2022-09-14T18:16:11;6.40;;;2.40;;
842;SDS011;407;48.884;9.126;2022-09-14T18:18:37;5.20;;;1.77;;
842;SDS011;407;48.884;9.126;2022-09-14T18:21:03;7.70;;;2.28;;
842;SDS011;407;48.884;9.126;2022-09-14T18:23:29;6.68;;;2.08;;
842;SDS011;407;48.884;9.126;2022-09-14T18:25:54;7.07;;;2.27;;
842;SDS011;407;48.884;9.126;2022-09-14T18:28:20;6.20;;;2.20;;
842;SDS011;407;48.884;9.126;2022-09-14T18:30:47;5.13;;;1.70;;
842;SDS011;407;48.884;9.126;2022-09-14T18:33:12;7.60;;;2.13;;
842;SDS011;407;48.884;9.126;2022-09-14T18:35:38;5.60;;;2.00;;